sensor_id;sensor_type;location;lat;lon;timestamp;P1;durP1;ratioP1;P2;durP2;ratioP2
38994;SDS011;24769;18.712;99.000;2023-04-25T00:01:35;62.25;;;51.50;;
38994;SDS011;24769;18.712;99.000;2023-04-25T00:04:02;64.25;;;53.50;;
38994;SDS011;24769;18.712;99.000;2023-04-25T00:06:31;71.50;;;62.25;;
38994;SDS011;24769;18.712;99.000;2023-04-25T00:09:02;66.75;;;53.50;;
38994;SDS011;24769;18.712;99.000;2023-04-25T00:11:35;68.75;;;59.50;;
38994;SDS011;24769;18.712;99.000;2023-04-25T00:14:03;67.75;;;55.50;;
38994;SDS011;24769;18.712;99.000;2023-04-25T00:16:30;69.25;;;58.25;;
38994;SDS011;24769;18.712;99.000;2023-04-25T00:18:59;65.00;;;53.75;;
38994;SDS011;24769;18.712;99.000;2023-04-25T00:21:26;69.00;;;57.75;;
38994;SDS011;24769;18.712;99.000;2023-04-25T00:23:53;71.25;;;61.50;;
38994;SDS011;24769;18.712;99.000;2023-04-25T00:26:20;66.50;;;56.25;;
38994;SDS011;24769;18.712;99.000;2023-04-25T00:28:47;69.75;;;60.00;;
38994;SDS011;24769;18.712;99.000;2023-04-25T00:31:14;70.00;;;61.00;;
38994;SDS011;24769;18.712;99.000;2023-04-25T00:33:40;69.75;;;60.75;;
38994;SDS011;24769;18.712;99.000;2023-04-25T00:36:07;71.75;;;63.75;;
38994;SDS011;24769;18.712;99.000;2023-04-25T00:38:34;67.50;;;57.50;;
38994;SDS011;24769;18.712;99.000;2023-04-25T00:41:01;68.00;;;56.75;;
38994;SDS011;24769;18.712;99.000;2023-04-25T00:43:28;66.75;;;55.75;;
38994;SDS011;24769;18.712;99.000;2023-04-25T00:45:55;67.00;;;55.50;;
38994;SDS011;24769;18.712;99.000;2023-04-25T00:48:23;66.50;;;55.75;;
38994;SDS011;24769;18.712;99.000;2023-04-25T00:50:53;60.00;;;50.00;;
38994;SDS011;24769;18.712;99.000;2023-04-25T00:53:24;65.75;;;54.50;;
38994;SDS011;24769;18.712;99.000;2023-04-25T00:55:52;65.75;;;54.50;;
38994;SDS011;24769;18.712;99.000;2023-04-25T00:58:20;64.25;;;52.25;;
38994;SDS011;24769;18.712;99.000;2023-04-25T01:00:48;63.00;;;52.00;;
38994;SDS011;24769;18.712;99.000;2023-04-25T01:03:17;61.60;;;51.00;;
38994;SDS011;24769;18.712;99.000;2023-04-25T01:05:47;61.50;;;51.00;;
38994;SDS011;24769;18.712;99.000;2023-04-25T01:08:14;62.60;;;51.80;;
38994;SDS011;24769;18.712;99.000;2023-04-25T01:10:41;65.00;;;52.80;;
38994;SDS011;24769;18.712;99.000;2023-04-25T01:13:08;62.80;;;51.60;;
38994;SDS011;24769;18.712;99.000;2023-04-25T01:15:35;59.20;;;48.60;;
38994;SDS011;24769;18.712;99.000;2023-04-25T01:18:02;60.20;;;49.20;;
38994;SDS011;24769;18.712;99.000;2023-04-25T01:20:29;60.20;;;49.80;;
38994;SDS011;24769;18.712;99.000;2023-04-25T01:22:58;61.60;;;50.60;;
38994;SDS011;24769;18.712;99.000;2023-04-25T01:25:27;60.00;;;49.40;;
38994;SDS011;24769;18.712;99.000;2023-04-25T01:27:55;57.80;;;48.20;;
38994;SDS011;24769;18.712;99.000;2023-04-25T01:30:22;69.00;;;60.25;;
38994;SDS011;24769;18.712;99.000;2023-04-25T01:32:49;60.00;;;49.60;;
38994;SDS011;24769;18.712;99.000;2023-04-25T01:35:16;60.40;;;50.00;;
38994;SDS011;24769;18.712;99.000;2023-04-25T01:37:42;59.00;;;49.00;;
38994;SDS011;24769;18.712;99.000;2023-04-25T01:40:10;59.80;;;49.00;;
38994;SDS011;24769;18.712;99.000;2023-04-25T01:42:38;58.00;;;48.00;;
38994;SDS011;24769;18.712;99.000;2023-04-25T01:45:08;56.40;;;47.00;;
38994;SDS011;24769;18.712;99.000;2023-04-25T01:47:36;57.20;;;48.00;;
38994;SDS011;24769;18.712;99.000;2023-04-25T01:50:05;57.00;;;48.00;;
38994;SDS011;24769;18.712;99.000;2023-04-25T01:52:33;63.20;;;51.80;;
38994;SDS011;24769;18.712;99.000;2023-04-25T01:55:00;61.40;;;51.00;;
38994;SDS011;24769;18.712;99.000;2023-04-25T01:57:28;60.00;;;49.80;;
38994;SDS011;24769;18.712;99.000;2023-04-25T01:59:58;64.00;;;52.40;;
38994;SDS011;24769;18.712;99.000;2023-04-25T02:02:26;62.00;;;50.80;;
38994;SDS011;24769;18.712;99.000;2023-04-25T02:04:53;60.60;;;50.00;;
38994;SDS011;24769;18.712;99.000;2023-04-25T02:07:20;59.80;;;48.80;;
38994;SDS011;24769;18.712;99.000;2023-04-25T02:09:47;61.00;;;50.00;;
38994;SDS011;24769;18.712;99.000;2023-04-25T02:12:14;61.40;;;50.60;;
38994;SDS011;24769;18.712;99.000;2023-04-25T02:14:40;60.60;;;49.80;;
38994;SDS011;24769;18.712;99.000;2023-04-25T02:17:07;64.20;;;53.20;;
38994;SDS011;24769;18.712;99.000;2023-04-25T02:19:34;62.60;;;51.00;;
38994;SDS011;24769;18.712;99.000;2023-04-25T02:22:00;62.40;;;50.60;;
38994;SDS011;24769;18.712;99.000;2023-04-25T02:24:27;63.80;;;52.40;;
38994;SDS011;24769;18.712;99.000;2023-04-25T02:26:54;65.60;;;55.20;;
38994;SDS011;24769;18.712;99.000;2023-04-25T02:29:21;68.00;;;58.00;;
38994;SDS011;24769;18.712;99.000;2023-04-25T02:31:48;68.80;;;59.40;;
38994;SDS011;24769;18.712;99.000;2023-04-25T02:34:15;66.80;;;57.00;;
38994;SDS011;24769;18.712;99.000;2023-04-25T02:36:41;62.80;;;51.80;;
38994;SDS011;24769;18.712;99.000;2023-04-25T02:39:08;66.80;;;57.00;;
38994;SDS011;24769;18.712;99.000;2023-04-25T02:41:36;68.00;;;59.40;;
38994;SDS011;24769;18.712;99.000;2023-04-25T02:44:02;72.20;;;66.20;;
38994;SDS011;24769;18.712;99.000;2023-04-25T02:46:29;72.40;;;66.20;;
38994;SDS011;24769;18.712;99.000;2023-04-25T02:48:55;74.80;;;71.80;;
38994;SDS011;24769;18.712;99.000;2023-04-25T02:51:22;78.25;;;76.75;;
38994;SDS011;24769;18.712;99.000;2023-04-25T02:53:49;77.00;;;75.00;;
38994;SDS011;24769;18.712;99.000;2023-04-25T02:56:15;71.00;;;63.20;;
38994;SDS011;24769;18.712;99.000;2023-04-25T02:58:42;74.40;;;70.80;;
38994;SDS011;24769;18.712;99.000;2023-04-25T03:01:09;75.60;;;71.80;;
38994;SDS011;24769;18.712;99.000;2023-04-25T03:03:36;75.40;;;73.20;;
38994;SDS011;24769;18.712;99.000;2023-04-25T03:06:03;69.00;;;61.00;;
38994;SDS011;24769;18.712;99.000;2023-04-25T03:08:29;64.80;;;54.60;;
38994;SDS011;24769;18.712;99.000;2023-04-25T03:10:58;70.40;;;62.80;;
38994;SDS011;24769;18.712;99.000;2023-04-25T03:13:25;72.00;;;67.20;;
38994;SDS011;24769;18.712;99.000;2023-04-25T03:15:52;70.40;;;63.80;;
38994;SDS011;24769;18.712;99.000;2023-04-25T03:18:19;72.60;;;65.60;;
38994;SDS011;24769;18.712;99.000;2023-04-25T03:20:45;70.60;;;64.20;;
38994;SDS011;24769;18.712;99.000;2023-04-25T03:23:12;68.40;;;61.40;;
38994;SDS011;24769;18.712;99.000;2023-04-25T03:25:39;71.00;;;64.80;;
38994;SDS011;24769;18.712;99.000;2023-04-25T03:28:05;70.60;;;63.80;;
38994;SDS011;24769;18.712;99.000;2023-04-25T03:30:32;69.00;;;62.00;;
38994;SDS011;24769;18.712;99.000;2023-04-25T03:32:59;71.00;;;64.60;;
38994;SDS011;24769;18.712;99.000;2023-04-25T03:35:25;67.20;;;58.00;;
38994;SDS011;24769;18.712;99.000;2023-04-25T03:37:52;68.40;;;60.80;;
38994;SDS011;24769;18.712;99.000;2023-04-25T03:40:19;67.00;;;58.80;;
38994;SDS011;24769;18.712;99.000;2023-04-25T03:42:45;67.80;;;59.20;;
38994;SDS011;24769;18.712;99.000;2023-04-25T03:45:12;65.80;;;56.00;;
38994;SDS011;24769;18.712;99.000;2023-04-25T03:47:39;68.40;;;59.80;;
38994;SDS011;24769;18.712;99.000;2023-04-25T03:50:05;64.00;;;53.60;;
38994;SDS011;24769;18.712;99.000;2023-04-25T03:52:32;68.40;;;60.40;;
38994;SDS011;24769;18.712;99.000;2023-04-25T03:54:59;65.40;;;54.60;;
38994;SDS011;24769;18.712;99.000;2023-04-25T03:57:28;64.60;;;55.20;;
38994;SDS011;24769;18.712;99.000;2023-04-25T03:59:54;67.00;;;57.80;;
38994;SDS011;24769;18.712;99.000;2023-04-25T04:02:21;69.40;;;61.40;;
38994;SDS011;24769;18.712;99.000;2023-04-25T04:04:48;68.60;;;59.00;;
38994;SDS011;24769;18.712;99.000;2023-04-25T04:07:14;68.20;;;59.00;;
38994;SDS011;24769;18.712;99.000;2023-04-25T04:09:41;62.60;;;51.40;;
38994;SDS011;24769;18.712;99.000;2023-04-25T04:12:08;62.40;;;51.40;;
38994;SDS011;24769;18.712;99.000;2023-04-25T04:14:35;61.00;;;50.00;;
38994;SDS011;24769;18.712;99.000;2023-04-25T04:17:01;62.80;;;51.20;;
38994;SDS011;24769;18.712;99.000;2023-04-25T04:19:28;63.20;;;51.80;;
38994;SDS011;24769;18.712;99.000;2023-04-25T04:21:55;65.00;;;53.40;;
38994;SDS011;24769;18.712;99.000;2023-04-25T04:24:21;61.80;;;50.80;;
38994;SDS011;24769;18.712;99.000;2023-04-25T04:26:49;63.20;;;52.00;;
38994;SDS011;24769;18.712;99.000;2023-04-25T04:29:16;61.00;;;50.40;;
38994;SDS011;24769;18.712;99.000;2023-04-25T04:31:49;61.00;;;50.40;;
38994;SDS011;24769;18.712;99.000;2023-04-25T04:34:16;62.40;;;51.40;;
38994;SDS011;24769;18.712;99.000;2023-04-25T04:36:44;64.00;;;53.00;;
38994;SDS011;24769;18.712;99.000;2023-04-25T04:39:13;58.40;;;48.20;;
38994;SDS011;24769;18.712;99.000;2023-04-25T04:41:40;60.00;;;49.20;;
38994;SDS011;24769;18.712;99.000;2023-04-25T04:44:08;60.80;;;49.80;;
38994;SDS011;24769;18.712;99.000;2023-04-25T04:46:35;61.60;;;51.00;;
38994;SDS011;24769;18.712;99.000;2023-04-25T04:49:10;60.00;;;49.80;;
38994;SDS011;24769;18.712;99.000;2023-04-25T04:51:37;60.20;;;49.40;;
38994;SDS011;24769;18.712;99.000;2023-04-25T04:54:04;62.20;;;50.80;;
38994;SDS011;24769;18.712;99.000;2023-04-25T04:56:31;60.20;;;49.80;;
38994;SDS011;24769;18.712;99.000;2023-04-25T04:58:58;52.00;;;43.80;;
38994;SDS011;24769;18.712;99.000;2023-04-25T05:01:25;57.40;;;47.60;;
38994;SDS011;24769;18.712;99.000;2023-04-25T05:03:52;52.20;;;44.00;;
38994;SDS011;24769;18.712;99.000;2023-04-25T05:06:18;55.40;;;46.00;;
38994;SDS011;24769;18.712;99.000;2023-04-25T05:08:45;53.40;;;44.80;;
38994;SDS011;24769;18.712;99.000;2023-04-25T05:11:11;52.40;;;44.20;;
38994;SDS011;24769;18.712;99.000;2023-04-25T05:13:38;54.40;;;45.40;;
38994;SDS011;24769;18.712;99.000;2023-04-25T05:16:05;50.00;;;42.40;;
38994;SDS011;24769;18.712;99.000;2023-04-25T05:18:31;55.40;;;46.40;;
38994;SDS011;24769;18.712;99.000;2023-04-25T05:20:58;53.80;;;45.00;;
38994;SDS011;24769;18.712;99.000;2023-04-25T05:23:24;55.40;;;46.40;;
38994;SDS011;24769;18.712;99.000;2023-04-25T05:25:53;49.80;;;42.40;;
38994;SDS011;24769;18.712;99.000;2023-04-25T05:28:19;52.20;;;44.20;;
38994;SDS011;24769;18.712;99.000;2023-04-25T05:30:47;55.40;;;46.40;;
38994;SDS011;24769;18.712;99.000;2023-04-25T05:33:14;48.80;;;41.20;;
38994;SDS011;24769;18.712;99.000;2023-04-25T05:35:41;54.60;;;45.60;;
38994;SDS011;24769;18.712;99.000;2023-04-25T05:38:08;49.80;;;42.40;;
38994;SDS011;24769;18.712;99.000;2023-04-25T05:40:35;53.80;;;44.80;;
38994;SDS011;24769;18.712;99.000;2023-04-25T05:43:01;53.40;;;44.80;;
38994;SDS011;24769;18.712;99.000;2023-04-25T05:45:28;47.80;;;40.80;;
38994;SDS011;24769;18.712;99.000;2023-04-25T05:47:55;46.80;;;39.80;;
38994;SDS011;24769;18.712;99.000;2023-04-25T05:50:21;47.40;;;40.40;;
38994;SDS011;24769;18.712;99.000;2023-04-25T05:52:48;50.20;;;43.20;;
38994;SDS011;24769;18.712;99.000;2023-04-25T05:55:15;53.60;;;44.80;;
38994;SDS011;24769;18.712;99.000;2023-04-25T05:57:42;55.00;;;46.00;;
38994;SDS011;24769;18.712;99.000;2023-04-25T06:00:11;51.80;;;43.80;;
38994;SDS011;24769;18.712;99.000;2023-04-25T06:02:41;51.00;;;43.00;;
38994;SDS011;24769;18.712;99.000;2023-04-25T06:05:08;51.40;;;43.20;;
38994;SDS011;24769;18.712;99.000;2023-04-25T06:07:35;53.40;;;44.60;;
38994;SDS011;24769;18.712;99.000;2023-04-25T06:10:01;54.20;;;45.40;;
38994;SDS011;24769;18.712;99.000;2023-04-25T06:12:32;43.80;;;38.00;;
38994;SDS011;24769;18.712;99.000;2023-04-25T06:14:59;47.20;;;40.40;;
38994;SDS011;24769;18.712;99.000;2023-04-25T06:17:26;49.40;;;42.20;;
38994;SDS011;24769;18.712;99.000;2023-04-25T06:19:53;48.00;;;41.00;;
38994;SDS011;24769;18.712;99.000;2023-04-25T06:22:19;51.20;;;43.00;;
38994;SDS011;24769;18.712;99.000;2023-04-25T06:24:46;48.00;;;41.00;;
38994;SDS011;24769;18.712;99.000;2023-04-25T06:27:13;47.80;;;40.80;;
38994;SDS011;24769;18.712;99.000;2023-04-25T06:29:39;48.60;;;41.60;;
38994;SDS011;24769;18.712;99.000;2023-04-25T06:32:06;49.20;;;42.00;;
38994;SDS011;24769;18.712;99.000;2023-04-25T06:34:33;48.80;;;41.60;;
38994;SDS011;24769;18.712;99.000;2023-04-25T06:37:00;50.20;;;42.60;;
38994;SDS011;24769;18.712;99.000;2023-04-25T06:39:26;44.80;;;38.80;;
38994;SDS011;24769;18.712;99.000;2023-04-25T06:41:53;45.80;;;39.40;;
38994;SDS011;24769;18.712;99.000;2023-04-25T06:44:19;49.80;;;42.40;;
38994;SDS011;24769;18.712;99.000;2023-04-25T06:46:48;49.00;;;42.00;;
38994;SDS011;24769;18.712;99.000;2023-04-25T06:49:15;48.20;;;41.20;;
38994;SDS011;24769;18.712;99.000;2023-04-25T06:51:41;44.80;;;38.80;;
38994;SDS011;24769;18.712;99.000;2023-04-25T06:54:08;48.40;;;41.40;;
38994;SDS011;24769;18.712;99.000;2023-04-25T06:56:35;55.80;;;46.20;;
38994;SDS011;24769;18.712;99.000;2023-04-25T06:59:01;59.40;;;49.00;;
38994;SDS011;24769;18.712;99.000;2023-04-25T07:01:28;47.20;;;40.40;;
38994;SDS011;24769;18.712;99.000;2023-04-25T07:03:55;42.80;;;37.20;;
38994;SDS011;24769;18.712;99.000;2023-04-25T07:06:21;44.00;;;38.00;;
38994;SDS011;24769;18.712;99.000;2023-04-25T07:08:48;47.40;;;40.60;;
38994;SDS011;24769;18.712;99.000;2023-04-25T07:11:15;43.60;;;38.00;;
38994;SDS011;24769;18.712;99.000;2023-04-25T07:13:41;48.80;;;41.80;;
38994;SDS011;24769;18.712;99.000;2023-04-25T07:16:08;45.00;;;39.00;;
38994;SDS011;24769;18.712;99.000;2023-04-25T07:18:35;48.80;;;41.20;;
38994;SDS011;24769;18.712;99.000;2023-04-25T07:21:01;49.40;;;42.00;;
38994;SDS011;24769;18.712;99.000;2023-04-25T07:23:28;48.00;;;41.00;;
38994;SDS011;24769;18.712;99.000;2023-04-25T07:25:55;48.00;;;41.00;;
38994;SDS011;24769;18.712;99.000;2023-04-25T07:28:22;47.60;;;40.60;;
38994;SDS011;24769;18.712;99.000;2023-04-25T07:30:48;49.80;;;42.20;;
38994;SDS011;24769;18.712;99.000;2023-04-25T07:33:15;50.00;;;42.60;;
38994;SDS011;24769;18.712;99.000;2023-04-25T07:35:41;47.80;;;40.80;;
38994;SDS011;24769;18.712;99.000;2023-04-25T07:38:08;48.00;;;41.00;;
38994;SDS011;24769;18.712;99.000;2023-04-25T07:40:35;47.80;;;40.80;;
38994;SDS011;24769;18.712;99.000;2023-04-25T07:43:02;45.40;;;39.40;;
38994;SDS011;24769;18.712;99.000;2023-04-25T07:45:29;43.60;;;37.40;;
38994;SDS011;24769;18.712;99.000;2023-04-25T07:47:55;44.40;;;38.60;;
38994;SDS011;24769;18.712;99.000;2023-04-25T07:50:22;46.40;;;39.40;;
38994;SDS011;24769;18.712;99.000;2023-04-25T07:52:49;47.60;;;40.80;;
38994;SDS011;24769;18.712;99.000;2023-04-25T07:55:15;45.80;;;39.60;;
38994;SDS011;24769;18.712;99.000;2023-04-25T07:57:42;42.60;;;37.20;;
38994;SDS011;24769;18.712;99.000;2023-04-25T08:00:09;42.60;;;37.20;;
38994;SDS011;24769;18.712;99.000;2023-04-25T08:02:36;47.00;;;40.40;;
38994;SDS011;24769;18.712;99.000;2023-04-25T08:05:03;45.20;;;39.40;;
38994;SDS011;24769;18.712;99.000;2023-04-25T08:07:31;47.60;;;41.00;;
38994;SDS011;24769;18.712;99.000;2023-04-25T08:09:58;42.40;;;37.00;;
38994;SDS011;24769;18.712;99.000;2023-04-25T08:12:25;44.80;;;38.60;;
38994;SDS011;24769;18.712;99.000;2023-04-25T08:14:51;43.40;;;37.80;;
38994;SDS011;24769;18.712;99.000;2023-04-25T08:17:18;47.20;;;40.60;;
38994;SDS011;24769;18.712;99.000;2023-04-25T08:19:45;46.80;;;40.20;;
38994;SDS011;24769;18.712;99.000;2023-04-25T08:22:11;44.00;;;37.80;;
38994;SDS011;24769;18.712;99.000;2023-04-25T08:24:38;48.60;;;41.60;;
38994;SDS011;24769;18.712;99.000;2023-04-25T08:27:05;45.20;;;39.00;;
38994;SDS011;24769;18.712;99.000;2023-04-25T08:29:33;45.80;;;39.60;;
38994;SDS011;24769;18.712;99.000;2023-04-25T08:32:00;40.40;;;35.40;;
38994;SDS011;24769;18.712;99.000;2023-04-25T08:34:27;41.60;;;36.40;;
38994;SDS011;24769;18.712;99.000;2023-04-25T08:36:53;47.20;;;40.40;;
38994;SDS011;24769;18.712;99.000;2023-04-25T08:39:20;40.40;;;35.20;;
38994;SDS011;24769;18.712;99.000;2023-04-25T08:41:47;46.00;;;39.80;;
38994;SDS011;24769;18.712;99.000;2023-04-25T08:44:13;46.80;;;40.00;;
38994;SDS011;24769;18.712;99.000;2023-04-25T08:46:42;41.20;;;36.60;;
38994;SDS011;24769;18.712;99.000;2023-04-25T08:49:15;46.40;;;40.00;;
38994;SDS011;24769;18.712;99.000;2023-04-25T08:51:45;45.20;;;39.40;;
38994;SDS011;24769;18.712;99.000;2023-04-25T08:54:13;44.00;;;38.20;;
38994;SDS011;24769;18.712;99.000;2023-04-25T08:56:44;43.20;;;37.60;;
38994;SDS011;24769;18.712;99.000;2023-04-25T08:59:14;47.80;;;40.20;;
38994;SDS011;24769;18.712;99.000;2023-04-25T09:01:40;40.20;;;35.40;;
38994;SDS011;24769;18.712;99.000;2023-04-25T09:04:07;47.40;;;40.60;;
38994;SDS011;24769;18.712;99.000;2023-04-25T09:06:34;44.80;;;39.00;;
38994;SDS011;24769;18.712;99.000;2023-04-25T09:09:04;46.40;;;40.20;;
38994;SDS011;24769;18.712;99.000;2023-04-25T09:11:32;45.20;;;39.00;;
38994;SDS011;24769;18.712;99.000;2023-04-25T09:14:10;37.60;;;34.00;;
38994;SDS011;24769;18.712;99.000;2023-04-25T09:19:22;47.40;;;40.60;;
38994;SDS011;24769;18.712;99.000;2023-04-25T09:21:53;53.20;;;44.60;;
38994;SDS011;24769;18.712;99.000;2023-04-25T09:24:30;49.80;;;42.40;;
38994;SDS011;24769;18.712;99.000;2023-04-25T09:26:58;50.80;;;43.00;;
38994;SDS011;24769;18.712;99.000;2023-04-25T09:29:33;52.80;;;44.60;;
38994;SDS011;24769;18.712;99.000;2023-04-25T09:37:32;47.20;;;40.40;;
38994;SDS011;24769;18.712;99.000;2023-04-25T09:40:00;47.00;;;40.20;;
38994;SDS011;24769;18.712;99.000;2023-04-25T09:42:31;50.80;;;43.00;;
38994;SDS011;24769;18.712;99.000;2023-04-25T09:45:00;46.60;;;39.80;;
38994;SDS011;24769;18.712;99.000;2023-04-25T09:47:27;46.20;;;39.80;;
38994;SDS011;24769;18.712;99.000;2023-04-25T09:49:54;48.00;;;41.00;;
38994;SDS011;24769;18.712;99.000;2023-04-25T09:52:22;44.00;;;37.60;;
38994;SDS011;24769;18.712;99.000;2023-04-25T09:54:50;44.20;;;38.20;;
38994;SDS011;24769;18.712;99.000;2023-04-25T09:57:18;43.20;;;37.20;;
38994;SDS011;24769;18.712;99.000;2023-04-25T09:59:45;41.00;;;36.00;;
38994;SDS011;24769;18.712;99.000;2023-04-25T10:02:13;40.40;;;35.60;;
38994;SDS011;24769;18.712;99.000;2023-04-25T10:04:48;40.80;;;36.00;;
38994;SDS011;24769;18.712;99.000;2023-04-25T10:07:20;39.80;;;35.40;;
38994;SDS011;24769;18.712;99.000;2023-04-25T10:09:53;37.20;;;33.20;;
38994;SDS011;24769;18.712;99.000;2023-04-25T10:12:28;32.40;;;30.80;;
38994;SDS011;24769;18.712;99.000;2023-04-25T10:14:59;39.00;;;34.60;;
38994;SDS011;24769;18.712;99.000;2023-04-25T10:17:26;30.20;;;29.20;;
38994;SDS011;24769;18.712;99.000;2023-04-25T10:19:54;40.20;;;35.60;;
38994;SDS011;24769;18.712;99.000;2023-04-25T10:22:29;35.20;;;32.40;;
38994;SDS011;24769;18.712;99.000;2023-04-25T10:25:02;41.40;;;36.40;;
38994;SDS011;24769;18.712;99.000;2023-04-25T10:27:30;43.20;;;37.40;;
38994;SDS011;24769;18.712;99.000;2023-04-25T10:30:30;41.20;;;36.40;;
38994;SDS011;24769;18.712;99.000;2023-04-25T10:32:50;40.20;;;35.20;;
38994;SDS011;24769;18.712;99.000;2023-04-25T10:35:29;39.80;;;35.00;;
38994;SDS011;24769;18.712;99.000;2023-04-25T10:40:29;43.60;;;37.20;;
38994;SDS011;24769;18.712;99.000;2023-04-25T10:43:33;42.60;;;37.00;;
38994;SDS011;24769;18.712;99.000;2023-04-25T10:46:22;44.20;;;38.20;;
38994;SDS011;24769;18.712;99.000;2023-04-25T10:51:23;39.60;;;35.20;;
38994;SDS011;24769;18.712;99.000;2023-04-25T11:01:38;41.80;;;36.40;;
38994;SDS011;24769;18.712;99.000;2023-04-25T11:04:18;46.00;;;39.60;;
38994;SDS011;24769;18.712;99.000;2023-04-25T11:07:00;44.80;;;38.80;;
38994;SDS011;24769;18.712;99.000;2023-04-25T11:09:29;46.40;;;40.00;;
38994;SDS011;24769;18.712;99.000;2023-04-25T11:11:56;45.40;;;39.20;;
38994;SDS011;24769;18.712;99.000;2023-04-25T11:14:24;46.00;;;39.20;;
38994;SDS011;24769;18.712;99.000;2023-04-25T11:16:55;43.80;;;37.80;;
38994;SDS011;24769;18.712;99.000;2023-04-25T11:19:23;40.80;;;35.80;;
38994;SDS011;24769;18.712;99.000;2023-04-25T11:21:50;47.80;;;40.20;;
38994;SDS011;24769;18.712;99.000;2023-04-25T11:24:25;47.80;;;40.80;;
38994;SDS011;24769;18.712;99.000;2023-04-25T11:26:59;54.40;;;45.40;;
38994;SDS011;24769;18.712;99.000;2023-04-25T11:29:31;47.40;;;40.20;;
38994;SDS011;24769;18.712;99.000;2023-04-25T11:32:00;55.60;;;46.60;;
38994;SDS011;24769;18.712;99.000;2023-04-25T11:34:28;51.40;;;42.60;;
38994;SDS011;24769;18.712;99.000;2023-04-25T11:36:59;48.60;;;41.40;;
38994;SDS011;24769;18.712;99.000;2023-04-25T11:39:27;47.60;;;40.80;;
38994;SDS011;24769;18.712;99.000;2023-04-25T11:41:54;55.40;;;45.80;;
38994;SDS011;24769;18.712;99.000;2023-04-25T11:44:21;56.20;;;47.00;;
38994;SDS011;24769;18.712;99.000;2023-04-25T11:46:48;51.40;;;43.60;;
38994;SDS011;24769;18.712;99.000;2023-04-25T11:49:15;53.60;;;45.00;;
38994;SDS011;24769;18.712;99.000;2023-04-25T11:51:44;56.00;;;46.80;;
38994;SDS011;24769;18.712;99.000;2023-04-25T11:54:12;53.60;;;45.00;;
38994;SDS011;24769;18.712;99.000;2023-04-25T11:56:43;48.40;;;41.40;;
38994;SDS011;24769;18.712;99.000;2023-04-25T11:59:11;49.40;;;42.40;;
38994;SDS011;24769;18.712;99.000;2023-04-25T12:01:39;49.20;;;42.20;;
38994;SDS011;24769;18.712;99.000;2023-04-25T12:04:13;50.60;;;43.20;;
38994;SDS011;24769;18.712;99.000;2023-04-25T12:06:42;45.20;;;39.00;;
38994;SDS011;24769;18.712;99.000;2023-04-25T12:09:11;49.20;;;42.00;;
38994;SDS011;24769;18.712;99.000;2023-04-25T12:11:46;49.60;;;42.60;;
38994;SDS011;24769;18.712;99.000;2023-04-25T12:14:27;48.60;;;41.60;;
38994;SDS011;24769;18.712;99.000;2023-04-25T12:16:56;36.20;;;33.20;;
38994;SDS011;24769;18.712;99.000;2023-04-25T12:19:24;45.40;;;38.60;;
38994;SDS011;24769;18.712;99.000;2023-04-25T12:21:52;47.80;;;40.60;;
38994;SDS011;24769;18.712;99.000;2023-04-25T12:24:23;49.40;;;42.40;;
38994;SDS011;24769;18.712;99.000;2023-04-25T12:29:24;48.60;;;41.20;;
38994;SDS011;24769;18.712;99.000;2023-04-25T12:31:53;44.00;;;38.00;;
38994;SDS011;24769;18.712;99.000;2023-04-25T12:34:20;48.00;;;41.20;;
38994;SDS011;24769;18.712;99.000;2023-04-25T12:36:48;48.40;;;41.20;;
38994;SDS011;24769;18.712;99.000;2023-04-25T12:39:19;37.00;;;33.80;;
38994;SDS011;24769;18.712;99.000;2023-04-25T12:41:51;50.20;;;42.80;;
38994;SDS011;24769;18.712;99.000;2023-04-25T12:44:19;49.60;;;42.40;;
38994;SDS011;24769;18.712;99.000;2023-04-25T12:46:47;59.80;;;49.60;;
38994;SDS011;24769;18.712;99.000;2023-04-25T12:49:14;65.00;;;53.75;;
38994;SDS011;24769;18.712;99.000;2023-04-25T12:51:40;64.20;;;53.00;;
38994;SDS011;24769;18.712;99.000;2023-04-25T12:54:07;53.40;;;45.20;;
38994;SDS011;24769;18.712;99.000;2023-04-25T12:56:34;55.60;;;46.60;;
38994;SDS011;24769;18.712;99.000;2023-04-25T12:59:01;54.80;;;46.00;;
38994;SDS011;24769;18.712;99.000;2023-04-25T13:01:31;54.40;;;45.60;;
38994;SDS011;24769;18.712;99.000;2023-04-25T13:03:58;51.20;;;43.60;;
38994;SDS011;24769;18.712;99.000;2023-04-25T13:06:25;48.40;;;41.40;;
38994;SDS011;24769;18.712;99.000;2023-04-25T13:08:51;48.40;;;41.00;;
38994;SDS011;24769;18.712;99.000;2023-04-25T13:11:18;43.20;;;37.80;;
38994;SDS011;24769;18.712;99.000;2023-04-25T13:13:45;47.40;;;40.60;;
38994;SDS011;24769;18.712;99.000;2023-04-25T13:16:11;53.40;;;44.60;;
38994;SDS011;24769;18.712;99.000;2023-04-25T13:18:41;46.80;;;40.40;;
38994;SDS011;24769;18.712;99.000;2023-04-25T13:21:09;51.40;;;43.80;;
38994;SDS011;24769;18.712;99.000;2023-04-25T13:23:36;45.00;;;38.80;;
38994;SDS011;24769;18.712;99.000;2023-04-25T13:26:03;46.60;;;40.00;;
38994;SDS011;24769;18.712;99.000;2023-04-25T13:28:30;47.00;;;40.20;;
38994;SDS011;24769;18.712;99.000;2023-04-25T13:30:57;49.80;;;42.80;;
38994;SDS011;24769;18.712;99.000;2023-04-25T13:33:24;47.60;;;40.20;;
38994;SDS011;24769;18.712;99.000;2023-04-25T13:35:51;47.40;;;41.00;;
38994;SDS011;24769;18.712;99.000;2023-04-25T13:38:25;49.40;;;42.40;;
38994;SDS011;24769;18.712;99.000;2023-04-25T13:40:53;46.00;;;39.40;;
38994;SDS011;24769;18.712;99.000;2023-04-25T13:43:20;47.20;;;40.60;;
38994;SDS011;24769;18.712;99.000;2023-04-25T13:45:49;48.80;;;41.80;;
38994;SDS011;24769;18.712;99.000;2023-04-25T13:48:17;45.20;;;39.00;;
38994;SDS011;24769;18.712;99.000;2023-04-25T13:50:44;48.60;;;41.60;;
38994;SDS011;24769;18.712;99.000;2023-04-25T13:53:11;45.20;;;39.20;;
38994;SDS011;24769;18.712;99.000;2023-04-25T13:55:37;47.00;;;40.00;;
38994;SDS011;24769;18.712;99.000;2023-04-25T13:58:04;47.00;;;40.60;;
38994;SDS011;24769;18.712;99.000;2023-04-25T14:00:35;50.20;;;42.40;;
38994;SDS011;24769;18.712;99.000;2023-04-25T14:03:08;44.80;;;38.80;;
38994;SDS011;24769;18.712;99.000;2023-04-25T14:05:35;48.00;;;41.20;;
38994;SDS011;24769;18.712;99.000;2023-04-25T14:08:06;46.80;;;40.60;;
38994;SDS011;24769;18.712;99.000;2023-04-25T14:10:34;47.60;;;41.00;;
38994;SDS011;24769;18.712;99.000;2023-04-25T14:13:02;48.20;;;41.20;;
38994;SDS011;24769;18.712;99.000;2023-04-25T14:15:29;47.00;;;40.40;;
38994;SDS011;24769;18.712;99.000;2023-04-25T14:17:59;47.40;;;41.00;;
38994;SDS011;24769;18.712;99.000;2023-04-25T14:20:26;48.80;;;41.60;;
38994;SDS011;24769;18.712;99.000;2023-04-25T14:22:53;46.20;;;40.00;;
38994;SDS011;24769;18.712;99.000;2023-04-25T14:25:22;47.80;;;41.00;;
38994;SDS011;24769;18.712;99.000;2023-04-25T14:27:49;49.40;;;42.40;;
38994;SDS011;24769;18.712;99.000;2023-04-25T14:30:17;45.40;;;39.40;;
38994;SDS011;24769;18.712;99.000;2023-04-25T14:32:45;48.80;;;41.80;;
38994;SDS011;24769;18.712;99.000;2023-04-25T14:35:11;45.60;;;39.60;;
38994;SDS011;24769;18.712;99.000;2023-04-25T14:37:38;47.40;;;41.00;;